Time;durP1;ratioP1;P1;durP2;ratioP2;P2;SDS_P1;SDS_P2;PMS_P1;PMS_P2;Temp;Humidity;BMP_temperature;BMP_pressure;BME280_temperature;BME280_humidity;BME280_pressure;Samples;Min_cycle;Max_cycle;Signal;HPM_P1;HPM_P2
2021/08/09 00:01:02;;;;;;;4.20;1.58;;;30.10;35.10;;;;;;4360219;32;20448;-38
2021/08/09 00:03:28;;;;;;;6.45;1.95;;;30.10;34.80;;;;;;4360072;32;20094;-38
2021/08/09 00:05:55;;;;;;;4.87;2.05;;;30.10;34.70;;;;;;4360183;32;20423;-37
2021/08/09 00:08:21;;;;;;;4.20;1.30;;;30.20;34.60;;;;;;4359905;32;20458;-39
2021/08/09 00:10:48;;;;;;;4.50;1.15;;;30.20;34.10;;;;;;4359757;32;20073;-38
2021/08/09 00:13:14;;;;;;;3.97;1.08;;;30.20;33.80;;;;;;4360020;32;20059;-39
2021/08/09 00:15:40;;;;;;;1.58;1.00;;;30.30;33.70;;;;;;4360480;32;20059;-39
2021/08/09 00:18:07;;;;;;;1.20;0.73;;;30.30;33.50;;;;;;4360455;32;20126;-39
2021/08/09 00:20:33;;;;;;;3.95;0.90;;;30.30;33.30;;;;;;4359791;32;20081;-39
2021/08/09 00:23:00;;;;;;;2.50;0.95;;;30.30;33.20;;;;;;4359561;32;20074;-38
2021/08/09 00:25:26;;;;;;;2.97;0.90;;;30.30;33.20;;;;;;4360216;32;20076;-38
2021/08/09 00:27:52;;;;;;;6.40;1.12;;;30.40;33.30;;;;;;4359666;32;20077;-38
2021/08/09 00:30:19;;;;;;;5.30;1.20;;;30.40;33.30;;;;;;4359829;32;20074;-38
2021/08/09 00:32:45;;;;;;;2.95;1.20;;;30.40;33.20;;;;;;4359971;32;20074;-38
2021/08/09 00:35:12;;;;;;;3.15;0.90;;;30.40;33.20;;;;;;4359752;32;20568;-37
2021/08/09 00:37:39;;;;;;;1.50;1.00;;;30.50;33.20;;;;;;4359864;32;20086;-39
2021/08/09 00:40:06;;;;;;;12.90;1.30;;;30.50;33.20;;;;;;4359879;32;20070;-38
2021/08/09 00:42:32;;;;;;;2.22;0.88;;;30.60;33.30;;;;;;4357460;32;20109;-39
2021/08/09 00:44:59;;;;;;;2.08;1.20;;;30.60;33.30;;;;;;4360427;32;20054;-38
2021/08/09 00:47:25;;;;;;;2.25;1.10;;;30.60;33.30;;;;;;4374550;32;20077;-38
2021/08/09 00:49:51;;;;;;;3.20;1.10;;;30.60;33.20;;;;;;4360758;32;20485;-38
2021/08/09 00:52:18;;;;;;;2.65;1.48;;;30.60;33.50;;;;;;4360389;32;20070;-37
2021/08/09 00:54:44;;;;;;;6.70;1.10;;;30.60;33.60;;;;;;4374355;32;20085;-37
2021/08/09 00:57:11;;;;;;;1.80;1.10;;;30.60;33.70;;;;;;4374734;32;20046;-38
2021/08/09 00:59:37;;;;;;;5.80;1.50;;;30.50;33.50;;;;;;4360530;32;20058;-37
2021/08/09 01:02:03;;;;;;;3.97;1.05;;;30.40;33.80;;;;;;4360415;32;20145;-37
2021/08/09 01:04:30;;;;;;;1.75;0.90;;;30.30;33.60;;;;;;4374186;32;20058;-37
2021/08/09 01:06:56;;;;;;;3.80;1.23;;;30.20;33.60;;;;;;4374011;32;20710;-37
2021/08/09 01:09:29;;;;;;;5.07;1.10;;;30.20;33.70;;;;;;4360172;32;20082;-38
2021/08/09 01:12:26;;;;;;;6.47;1.30;;;30.10;34.00;;;;;;4348300;32;20181;-38
2021/08/09 01:15:17;;;;;;;2.15;1.12;;;30.00;34.00;;;;;;4373726;32;20081;-38
2021/08/09 01:17:45;;;;;;;3.03;2.00;;;29.80;34.00;;;;;;4360059;32;20085;-37
2021/08/09 01:20:39;;;;;;;2.65;1.45;;;29.70;34.10;;;;;;4373954;32;20095;-38
2021/08/09 01:23:28;;;;;;;3.90;1.15;;;29.60;34.30;;;;;;4352089;32;20153;-38
2021/08/09 01:25:59;;;;;;;1.50;0.93;;;29.40;34.10;;;;;;4374104;32;20072;-38
2021/08/09 01:28:29;;;;;;;3.70;1.20;;;29.30;34.10;;;;;;4336099;32;20143;-37
2021/08/09 01:30:56;;;;;;;3.05;0.90;;;29.30;34.00;;;;;;4360539;32;20145;-38
2021/08/09 01:33:23;;;;;;;6.72;1.08;;;29.20;33.90;;;;;;4360079;32;20078;-37
2021/08/09 01:35:52;;;;;;;1.87;0.80;;;29.20;34.20;;;;;;4373728;32;20530;-38
2021/08/09 01:38:18;;;;;;;3.03;1.08;;;29.20;33.80;;;;;;4359870;32;20067;-38
2021/08/09 01:40:48;;;;;;;4.32;0.82;;;29.20;33.50;;;;;;4359494;32;20069;-38
2021/08/09 01:43:15;;;;;;;7.87;1.17;;;29.30;33.50;;;;;;4345634;32;20091;-38
2021/08/09 01:45:42;;;;;;;5.62;1.50;;;29.30;33.40;;;;;;4332941;32;20062;-37
2021/08/09 01:48:09;;;;;;;3.40;1.23;;;29.40;33.60;;;;;;4358469;32;20490;-38
2021/08/09 01:50:36;;;;;;;6.05;1.50;;;29.40;33.50;;;;;;4344727;32;20071;-38
2021/08/09 01:53:04;;;;;;;3.22;1.10;;;29.50;34.30;;;;;;4333029;32;20062;-38
2021/08/09 01:55:31;;;;;;;2.90;1.00;;;29.50;33.60;;;;;;4358221;32;20145;-38
2021/08/09 01:57:57;;;;;;;3.70;1.42;;;29.60;33.90;;;;;;4358460;32;20063;-38
2021/08/09 02:00:24;;;;;;;3.83;1.30;;;29.60;34.00;;;;;;4344657;32;20199;-38
2021/08/09 02:02:52;;;;;;;7.50;1.55;;;29.60;34.20;;;;;;4344684;32;20444;-38
2021/08/09 02:05:18;;;;;;;4.60;1.33;;;29.70;34.40;;;;;;4358459;32;20086;-37
2021/08/09 02:07:47;;;;;;;2.70;1.10;;;29.80;34.50;;;;;;4358712;32;20055;-37
2021/08/09 02:10:17;;;;;;;3.60;1.00;;;29.80;34.40;;;;;;4344309;32;20085;-38
2021/08/09 02:13:07;;;;;;;5.32;1.20;;;29.90;34.20;;;;;;4358450;32;20138;-38
2021/08/09 02:16:00;;;;;;;4.45;1.60;;;30.00;34.10;;;;;;4344613;32;20121;-38
2021/08/09 02:18:51;;;;;;;2.75;1.00;;;30.10;34.00;;;;;;4358715;32;20078;-38
2021/08/09 02:21:22;;;;;;;2.97;1.12;;;30.20;33.70;;;;;;4358183;32;20463;-37
2021/08/09 02:24:10;;;;;;;7.32;1.15;;;30.30;33.30;;;;;;4328499;33;20143;-37
2021/08/09 02:26:45;;;;;;;5.93;0.90;;;30.50;33.30;;;;;;4328335;33;20066;-37
2021/08/09 02:29:18;;;;;;;3.53;1.00;;;30.70;32.90;;;;;;4340756;33;20083;-38
2021/08/09 02:31:45;;;;;;;1.77;0.93;;;30.80;32.60;;;;;;4341240;33;20062;-37
2021/08/09 02:34:13;;;;;;;2.17;0.98;;;31.00;32.30;;;;;;4328591;33;20522;-37
2021/08/09 02:36:42;;;;;;;9.05;1.45;;;31.30;32.00;;;;;;4316100;33;20510;-38
2021/08/09 02:39:08;;;;;;;4.70;0.82;;;31.50;31.70;;;;;;4328495;33;20137;-36
2021/08/09 02:41:34;;;;;;;5.60;1.77;;;31.90;31.30;;;;;;4333851;32;20074;-38
2021/08/09 02:44:01;;;;;;;3.62;1.05;;;32.20;31.00;;;;;;4343133;32;20081;-38
2021/08/09 02:46:28;;;;;;;1.75;0.80;;;32.50;30.50;;;;;;4330979;32;20063;-37
2021/08/09 02:48:54;;;;;;;1.83;0.82;;;32.90;29.90;;;;;;4343326;32;20153;-37
2021/08/09 02:51:21;;;;;;;3.25;0.90;;;33.10;29.70;;;;;;4343301;32;20086;-38
2021/08/09 02:53:48;;;;;;;3.35;0.90;;;33.50;29.50;;;;;;4343054;32;20542;-36
2021/08/09 02:56:14;;;;;;;3.15;0.80;;;33.70;29.10;;;;;;4343642;32;20674;-37
2021/08/09 02:58:41;;;;;;;5.35;1.00;;;33.90;28.80;;;;;;4331051;32;20108;-37
2021/08/09 03:01:07;;;;;;;5.20;1.10;;;34.00;28.80;;;;;;4350500;32;20082;-37
2021/08/09 03:03:35;;;;;;;7.78;1.67;;;34.20;28.80;;;;;;4372679;32;20070;-37
2021/08/09 03:06:02;;;;;;;4.60;1.00;;;34.30;28.60;;;;;;4335113;32;20155;-36
2021/08/09 03:08:29;;;;;;;2.53;0.98;;;34.40;28.50;;;;;;4358760;32;20096;-38
2021/08/09 03:10:55;;;;;;;3.45;0.70;;;34.50;28.50;;;;;;4358885;32;20074;-38
2021/08/09 03:13:25;;;;;;;2.00;0.90;;;34.70;28.50;;;;;;4359165;32;20092;-36
2021/08/09 03:15:52;;;;;;;6.00;1.10;;;34.90;28.10;;;;;;4372844;32;20074;-38
2021/08/09 03:18:19;;;;;;;1.92;0.90;;;35.10;28.10;;;;;;4373428;32;20073;-37
2021/08/09 03:20:45;;;;;;;2.85;1.00;;;35.20;28.00;;;;;;4373097;32;20467;-37
2021/08/09 03:23:11;;;;;;;3.70;1.20;;;35.30;28.20;;;;;;4358677;32;20477;-37
2021/08/09 03:25:38;;;;;;;3.72;0.82;;;35.40;28.10;;;;;;4372714;32;20070;-37
2021/08/09 03:28:07;;;;;;;2.03;0.82;;;35.50;28.10;;;;;;4372392;32;20533;-37
2021/08/09 03:30:34;;;;;;;2.75;1.00;;;35.50;27.80;;;;;;4372728;32;20058;-38
2021/08/09 03:33:00;;;;;;;3.47;0.80;;;35.80;27.80;;;;;;4358490;32;20070;-38
2021/08/09 03:35:27;;;;;;;5.72;0.80;;;36.00;27.50;;;;;;4372343;32;20158;-38
2021/08/09 03:37:53;;;;;;;19.12;2.08;;;36.30;27.50;;;;;;4373239;32;20057;-38
2021/08/09 03:40:20;;;;;;;5.70;0.90;;;36.70;27.20;;;;;;4375556;32;20073;-38
2021/08/09 03:42:46;;;;;;;4.32;0.80;;;37.00;27.00;;;;;;4348114;32;20058;-38
2021/08/09 03:45:12;;;;;;;4.05;1.30;;;37.30;26.80;;;;;;4346696;32;20466;-38
2021/08/09 03:47:39;;;;;;;5.65;1.20;;;37.70;26.80;;;;;;4360582;32;20108;-38
2021/08/09 03:50:06;;;;;;;2.33;0.90;;;38.00;26.40;;;;;;4346293;32;20459;-39
2021/08/09 03:52:32;;;;;;;5.82;1.05;;;38.20;26.30;;;;;;4346642;32;20510;-38
2021/08/09 03:54:59;;;;;;;4.00;1.08;;;38.50;25.80;;;;;;4360256;32;20074;-38
2021/08/09 03:57:26;;;;;;;10.48;1.10;;;38.80;25.50;;;;;;4360087;32;20081;-38
2021/08/09 03:59:52;;;;;;;2.80;0.73;;;38.90;25.80;;;;;;4360177;32;20059;-38
2021/08/09 04:02:19;;;;;;;6.57;1.08;;;39.00;25.60;;;;;;4360410;32;20089;-38
2021/08/09 04:04:45;;;;;;;3.20;1.10;;;39.10;25.50;;;;;;4359813;32;20186;-38
2021/08/09 04:07:12;;;;;;;3.55;1.15;;;39.10;25.30;;;;;;4360134;32;20067;-38
2021/08/09 04:09:38;;;;;;;4.85;1.58;;;39.20;25.20;;;;;;4359951;32;20059;-39
2021/08/09 04:12:05;;;;;;;2.53;0.88;;;39.20;25.50;;;;;;4359980;32;20450;-38
2021/08/09 04:14:31;;;;;;;5.22;0.90;;;39.20;25.70;;;;;;4359675;32;20082;-38
2021/08/09 04:16:58;;;;;;;4.47;1.05;;;39.20;25.60;;;;;;4360354;32;20099;-37
2021/08/09 04:19:24;;;;;;;2.87;0.90;;;39.20;25.20;;;;;;4360188;32;20531;-38
2021/08/09 04:21:50;;;;;;;4.72;1.10;;;39.30;25.60;;;;;;4359763;32;20090;-38
2021/08/09 04:24:17;;;;;;;0.90;0.80;;;39.40;25.00;;;;;;4359629;32;20482;-38
2021/08/09 04:26:43;;;;;;;3.58;0.80;;;39.40;24.90;;;;;;4360002;32;20070;-38
2021/08/09 04:29:10;;;;;;;5.35;1.73;;;39.40;24.90;;;;;;4359431;32;20077;-38
2021/08/09 04:31:42;;;;;;;4.18;1.55;;;39.40;25.10;;;;;;4359680;32;20062;-36
2021/08/09 04:34:08;;;;;;;2.53;0.80;;;39.40;25.20;;;;;;4360132;32;20055;-38
2021/08/09 04:36:35;;;;;;;2.58;0.90;;;39.50;24.60;;;;;;4359354;32;20062;-38
2021/08/09 04:39:01;;;;;;;2.95;1.20;;;39.80;24.10;;;;;;4359602;32;20059;-38
2021/08/09 04:41:28;;;;;;;5.00;0.80;;;40.20;23.60;;;;;;4351048;32;20062;-37
2021/08/09 04:43:54;;;;;;;3.78;1.05;;;40.50;23.40;;;;;;4374563;32;20440;-38
2021/08/09 04:46:20;;;;;;;1.80;0.70;;;40.80;23.40;;;;;;4374643;32;20582;-38
2021/08/09 04:48:47;;;;;;;2.22;0.68;;;41.10;22.90;;;;;;4374378;32;20121;-38
2021/08/09 04:51:14;;;;;;;7.35;0.98;;;41.30;22.70;;;;;;4374173;32;20181;-38
2021/08/09 04:53:40;;;;;;;3.55;0.85;;;41.50;22.60;;;;;;4374372;32;20062;-38
2021/08/09 04:56:06;;;;;;;3.10;0.80;;;41.80;22.60;;;;;;4374328;32;20058;-38
2021/08/09 04:58:33;;;;;;;1.98;0.70;;;41.90;22.50;;;;;;4374194;32;20065;-38
2021/08/09 05:00:59;;;;;;;3.17;0.70;;;42.10;22.50;;;;;;4374302;32;20079;-38
2021/08/09 05:03:26;;;;;;;3.97;0.70;;;42.10;22.40;;;;;;4374511;32;20165;-38
2021/08/09 05:05:52;;;;;;;2.35;0.60;;;42.10;22.40;;;;;;4374324;32;20668;-37
2021/08/09 05:08:19;;;;;;;2.90;0.70;;;42.10;22.50;;;;;;4374068;32;20054;-39
2021/08/09 05:10:45;;;;;;;4.65;0.80;;;42.00;22.50;;;;;;4374217;32;20156;-39
2021/08/09 05:13:12;;;;;;;2.03;0.90;;;42.00;22.50;;;;;;4374103;32;20523;-38
2021/08/09 05:15:40;;;;;;;5.35;0.93;;;41.90;22.70;;;;;;4374007;32;20064;-39
2021/08/09 05:18:06;;;;;;;4.22;1.05;;;41.90;22.80;;;;;;4374007;32;20081;-38
2021/08/09 05:20:33;;;;;;;6.43;0.80;;;41.80;22.90;;;;;;4373995;32;20082;-38
2021/08/09 05:22:59;;;;;;;3.75;0.80;;;41.70;23.00;;;;;;4373948;32;20620;-39
2021/08/09 05:25:26;;;;;;;3.47;0.50;;;41.50;22.80;;;;;;4374097;32;20624;-38
2021/08/09 05:27:52;;;;;;;3.20;1.65;;;41.50;22.80;;;;;;4374205;32;20073;-38
2021/08/09 05:30:18;;;;;;;5.62;0.80;;;41.40;23.00;;;;;;4373779;32;20070;-38
2021/08/09 05:32:45;;;;;;;4.65;0.50;;;41.40;23.00;;;;;;4359842;32;20532;-38
2021/08/09 05:35:11;;;;;;;6.12;0.60;;;41.30;22.80;;;;;;4359847;32;20068;-38
2021/08/09 05:37:38;;;;;;;3.30;0.80;;;41.40;22.50;;;;;;4373602;32;20538;-38
2021/08/09 05:40:06;;;;;;;2.28;0.73;;;41.30;22.50;;;;;;4373797;32;20153;-39
2021/08/09 05:42:33;;;;;;;3.50;0.50;;;41.40;22.40;;;;;;4362265;32;20070;-38
2021/08/09 05:44:59;;;;;;;3.85;0.60;;;41.50;22.30;;;;;;4358985;32;20062;-37
2021/08/09 05:47:25;;;;;;;1.90;0.60;;;41.60;22.20;;;;;;4359031;32;20138;-39
2021/08/09 05:49:54;;;;;;;6.10;0.90;;;41.70;22.10;;;;;;4358778;32;20368;-39
2021/08/09 05:52:21;;;;;;;4.75;0.70;;;41.80;22.20;;;;;;4358317;32;20654;-39
2021/08/09 05:54:48;;;;;;;2.95;0.50;;;41.80;22.40;;;;;;4358519;32;20067;-38
2021/08/09 05:57:15;;;;;;;2.80;0.70;;;41.90;22.50;;;;;;4358535;32;20067;-39
2021/08/09 05:59:41;;;;;;;6.03;0.77;;;41.90;22.90;;;;;;4358223;32;20059;-38
2021/08/09 06:02:07;;;;;;;3.50;1.15;;;41.90;23.10;;;;;;4358558;32;20074;-38
2021/08/09 06:04:34;;;;;;;10.70;0.80;;;41.70;23.00;;;;;;4358443;32;20448;-38
2021/08/09 06:07:00;;;;;;;3.83;1.02;;;41.60;22.90;;;;;;4344393;32;20521;-40
2021/08/09 06:09:27;;;;;;;3.12;0.60;;;41.50;23.00;;;;;;4358560;32;20163;-38
2021/08/09 06:11:53;;;;;;;1.62;0.70;;;41.50;22.90;;;;;;4344387;32;20062;-39
2021/08/09 06:14:20;;;;;;;1.70;0.60;;;41.30;23.10;;;;;;4358384;32;20089;-38
2021/08/09 06:16:46;;;;;;;5.78;0.90;;;41.20;23.20;;;;;;4357859;32;20145;-38
2021/08/09 06:19:13;;;;;;;2.90;0.57;;;41.10;23.00;;;;;;4344324;32;20482;-39
2021/08/09 06:21:39;;;;;;;2.95;0.60;;;41.00;23.10;;;;;;4344407;32;20066;-38
2021/08/09 06:24:06;;;;;;;1.23;0.60;;;41.00;22.70;;;;;;4358434;32;20058;-39
2021/08/09 06:26:32;;;;;;;3.75;0.80;;;41.00;22.90;;;;;;4358341;32;20171;-39
2021/08/09 06:28:58;;;;;;;1.27;0.60;;;41.00;23.30;;;;;;4358450;32;20106;-39
2021/08/09 06:31:25;;;;;;;1.10;0.60;;;41.10;22.90;;;;;;4357889;32;20139;-38
2021/08/09 06:33:52;;;;;;;2.10;0.80;;;41.10;22.90;;;;;;4358330;32;20066;-38
2021/08/09 06:36:18;;;;;;;3.53;0.57;;;41.00;22.80;;;;;;4358426;32;20643;-38
2021/08/09 06:38:44;;;;;;;6.00;0.80;;;41.00;23.00;;;;;;4344583;32;20063;-39
2021/08/09 06:41:11;;;;;;;0.93;0.50;;;41.20;23.00;;;;;;4358150;32;20159;-39
2021/08/09 06:43:37;;;;;;;4.15;1.00;;;41.30;22.70;;;;;;4358425;32;20080;-38
2021/08/09 06:46:04;;;;;;;5.37;0.93;;;41.40;22.60;;;;;;4357772;32;20077;-39
2021/08/09 06:48:30;;;;;;;1.80;0.65;;;41.50;22.50;;;;;;4358275;32;20644;-38
2021/08/09 06:50:59;;;;;;;3.78;0.60;;;41.50;22.60;;;;;;4357899;32;20097;-39
2021/08/09 06:53:25;;;;;;;3.05;0.55;;;41.50;22.40;;;;;;4357970;32;20054;-39
2021/08/09 06:55:51;;;;;;;1.83;0.50;;;41.40;22.40;;;;;;4358234;32;20160;-39
2021/08/09 06:58:18;;;;;;;4.65;0.60;;;41.40;22.50;;;;;;4357991;32;20070;-40
2021/08/09 07:00:44;;;;;;;3.50;0.50;;;41.40;22.50;;;;;;4357976;32;20190;-38
2021/08/09 07:03:11;;;;;;;2.03;0.65;;;41.60;22.50;;;;;;4357549;32;20539;-39
2021/08/09 07:05:45;;;;;;;7.22;1.15;;;41.80;22.40;;;;;;4357983;32;20082;-38
2021/08/09 07:08:12;;;;;;;3.50;0.50;;;42.30;22.30;;;;;;4358029;32;20066;-38
2021/08/09 07:10:39;;;;;;;5.43;0.90;;;42.60;22.10;;;;;;4356533;32;20063;-38
2021/08/09 07:13:06;;;;;;;2.08;0.47;;;42.90;22.10;;;;;;4358893;32;20212;-39
2021/08/09 07:15:32;;;;;;;5.55;0.60;;;43.00;21.60;;;;;;4361394;32;20221;-38
2021/08/09 07:17:58;;;;;;;6.03;0.80;;;42.90;21.80;;;;;;4361063;32;20090;-38
2021/08/09 07:20:25;;;;;;;2.03;0.60;;;42.80;21.80;;;;;;4361128;32;20094;-38
2021/08/09 07:22:51;;;;;;;1.55;0.57;;;42.80;21.80;;;;;;4360782;32;20063;-37
2021/08/09 07:25:18;;;;;;;4.87;0.62;;;42.70;21.70;;;;;;4360806;32;20066;-38
2021/08/09 07:27:45;;;;;;;2.05;0.60;;;42.80;21.70;;;;;;4360419;32;20537;-38
2021/08/09 07:30:13;;;;;;;7.07;0.73;;;42.90;22.20;;;;;;4360786;32;20510;-40
2021/08/09 07:32:39;;;;;;;3.37;0.60;;;43.00;21.70;;;;;;4360948;32;20070;-38
2021/08/09 07:35:06;;;;;;;4.70;0.60;;;43.20;21.80;;;;;;4360712;32;20063;-38
2021/08/09 07:37:33;;;;;;;3.28;0.70;;;43.30;21.80;;;;;;4360738;32;20059;-37
2021/08/09 07:39:59;;;;;;;3.75;0.60;;;43.30;21.80;;;;;;4358864;32;20585;-38
2021/08/09 07:42:26;;;;;;;3.30;0.70;;;43.40;21.80;;;;;;4360577;32;20142;-38
2021/08/09 07:44:53;;;;;;;4.15;0.90;;;43.50;21.90;;;;;;4360679;32;20098;-37
2021/08/09 07:47:19;;;;;;;1.30;0.77;;;43.50;22.00;;;;;;4360410;32;20519;-37
2021/08/09 07:49:46;;;;;;;3.70;0.95;;;43.50;22.00;;;;;;4360423;32;20078;-37
2021/08/09 07:52:12;;;;;;;3.78;0.73;;;43.50;22.00;;;;;;4346295;32;20078;-38
2021/08/09 07:54:39;;;;;;;4.05;1.05;;;43.50;22.10;;;;;;4360284;32;20078;-38
2021/08/09 07:57:06;;;;;;;0.98;0.60;;;43.40;22.10;;;;;;4360157;32;20540;-38
2021/08/09 07:59:33;;;;;;;3.85;0.80;;;43.40;22.00;;;;;;4360257;32;20243;-38
2021/08/09 08:02:04;;;;;;;6.25;0.90;;;43.40;22.10;;;;;;4346683;32;20117;-37
2021/08/09 08:04:31;;;;;;;1.15;0.88;;;43.40;22.20;;;;;;4346745;32;20085;-38
2021/08/09 08:06:58;;;;;;;4.65;0.70;;;43.20;22.20;;;;;;4359771;32;20162;-38
2021/08/09 08:09:25;;;;;;;4.80;0.80;;;43.20;22.20;;;;;;4359971;32;20459;-40
2021/08/09 08:11:51;;;;;;;2.42;0.60;;;43.20;22.40;;;;;;4345731;32;20234;-38
2021/08/09 08:14:18;;;;;;;6.15;0.70;;;43.30;22.40;;;;;;4360132;32;20151;-39
2021/08/09 08:16:46;;;;;;;2.45;0.70;;;43.40;22.30;;;;;;4359985;32;20069;-38
2021/08/09 08:19:13;;;;;;;2.62;0.70;;;43.50;22.10;;;;;;4346568;32;20074;-39
2021/08/09 08:21:39;;;;;;;12.32;1.33;;;43.60;22.00;;;;;;4360062;32;20534;-39
2021/08/09 08:24:06;;;;;;;3.28;0.80;;;43.80;22.10;;;;;;4359212;32;20133;-37
2021/08/09 08:26:32;;;;;;;2.55;0.60;;;43.90;22.00;;;;;;4359607;32;20062;-39
2021/08/09 08:28:58;;;;;;;4.10;0.70;;;44.00;22.10;;;;;;4359828;32;20065;-38
2021/08/09 08:31:25;;;;;;;1.20;0.75;;;44.00;21.90;;;;;;4359638;32;20142;-38
2021/08/09 08:33:51;;;;;;;3.90;0.70;;;44.10;21.90;;;;;;4359749;32;20543;-37
2021/08/09 08:36:18;;;;;;;3.85;0.70;;;44.20;22.00;;;;;;4359602;32;20119;-37
2021/08/09 08:38:44;;;;;;;1.98;0.60;;;44.20;21.90;;;;;;4359726;32;20077;-38
2021/08/09 08:41:10;;;;;;;1.52;0.60;;;44.20;21.90;;;;;;4359742;32;20066;-39
2021/08/09 08:43:37;;;;;;;3.37;0.60;;;44.30;21.90;;;;;;4346004;32;20070;-38
2021/08/09 08:46:05;;;;;;;4.72;0.75;;;44.50;21.80;;;;;;4359520;32;20063;-39
2021/08/09 08:48:33;;;;;;;3.08;0.93;;;44.70;21.80;;;;;;4359484;32;20058;-37
2021/08/09 08:51:02;;;;;;;4.45;0.85;;;44.90;21.70;;;;;;4359571;32;20098;-38
2021/08/09 08:53:33;;;;;;;3.45;0.50;;;45.20;21.60;;;;;;4359484;32;20082;-38
2021/08/09 08:56:00;;;;;;;2.25;0.85;;;45.30;21.40;;;;;;4359393;32;20086;-38
2021/08/09 08:58:26;;;;;;;2.08;0.80;;;45.20;21.50;;;;;;4357745;32;20179;-38
2021/08/09 09:00:53;;;;;;;5.15;1.15;;;45.20;21.60;;;;;;4359330;32;20066;-38
2021/08/09 09:03:25;;;;;;;2.62;0.68;;;45.20;21.60;;;;;;4359709;32;20098;-37
2021/08/09 09:06:08;;;;;;;4.97;0.75;;;45.20;21.60;;;;;;4359533;32;20122;-38
2021/08/09 09:08:41;;;;;;;3.03;1.02;;;45.10;21.70;;;;;;4359026;32;20077;-37
2021/08/09 09:11:10;;;;;;;2.33;0.70;;;44.70;21.70;;;;;;4366873;32;20101;-38
2021/08/09 09:13:40;;;;;;;2.50;0.80;;;44.50;22.00;;;;;;4360450;32;20074;-39
2021/08/09 09:16:08;;;;;;;3.80;0.70;;;44.00;22.20;;;;;;4360041;32;20141;-38
2021/08/09 09:18:56;;;;;;;4.30;1.08;;;43.50;22.30;;;;;;4373667;32;20137;-38
2021/08/09 09:21:40;;;;;;;1.92;0.62;;;43.00;22.40;;;;;;4373649;32;20066;-39
2021/08/09 09:24:18;;;;;;;3.00;0.70;;;42.70;23.00;;;;;;4373946;32;20071;-39
2021/08/09 09:27:09;;;;;;;1.95;0.85;;;42.40;23.10;;;;;;4373860;32;20157;-37
2021/08/09 09:29:39;;;;;;;2.85;0.80;;;42.30;23.20;;;;;;4373537;32;20069;-38
2021/08/09 09:32:20;;;;;;;1.65;0.90;;;42.20;23.20;;;;;;4359695;32;20066;-38
2021/08/09 09:34:50;;;;;;;5.53;1.50;;;42.20;23.20;;;;;;4360238;32;20053;-38
2021/08/09 09:37:35;;;;;;;3.58;0.62;;;42.10;23.00;;;;;;4373477;32;20131;-38
2021/08/09 09:40:17;;;;;;;2.75;0.80;;;42.10;23.10;;;;;;4373483;32;20082;-38
2021/08/09 09:42:43;;;;;;;2.83;0.85;;;42.20;23.20;;;;;;4361244;32;20143;-37
2021/08/09 09:45:24;;;;;;;2.25;0.90;;;42.30;23.00;;;;;;4359109;32;20070;-39
2021/08/09 09:48:07;;;;;;;4.22;0.85;;;42.20;23.00;;;;;;4344625;32;20518;-37
2021/08/09 09:50:41;;;;;;;2.62;0.80;;;42.20;23.00;;;;;;4358805;32;20074;-38
2021/08/09 09:53:21;;;;;;;2.87;0.70;;;42.10;23.10;;;;;;4358664;32;20143;-38
2021/08/09 09:55:49;;;;;;;4.15;0.82;;;42.10;22.90;;;;;;4345147;32;20074;-39
2021/08/09 09:58:17;;;;;;;4.22;0.88;;;42.20;22.80;;;;;;4358777;32;20074;-39
2021/08/09 10:00:44;;;;;;;1.95;0.80;;;42.30;22.80;;;;;;4344901;32;20058;-38
2021/08/09 10:03:10;;;;;;;6.20;1.10;;;42.50;22.80;;;;;;4358248;32;20165;-37
2021/08/09 10:05:41;;;;;;;4.25;0.75;;;42.70;22.80;;;;;;4358417;32;20475;-37
2021/08/09 10:08:16;;;;;;;3.85;1.05;;;42.80;22.80;;;;;;4358459;32;20082;-37
2021/08/09 10:10:51;;;;;;;5.10;0.90;;;42.90;22.70;;;;;;4358280;32;20152;-38
2021/08/09 10:13:20;;;;;;;3.30;0.98;;;42.80;22.80;;;;;;4344601;32;20436;-38
2021/08/09 10:15:55;;;;;;;5.32;0.77;;;42.70;22.70;;;;;;4358128;32;20065;-37
2021/08/09 10:18:29;;;;;;;1.12;0.77;;;42.60;22.90;;;;;;4344814;32;20101;-38
2021/08/09 10:20:57;;;;;;;2.55;1.30;;;42.50;23.10;;;;;;4358300;32;20155;-38
2021/08/09 10:23:45;;;;;;;2.37;0.70;;;42.60;23.00;;;;;;4358293;32;20073;-37
2021/08/09 10:26:44;;;;;;;3.28;0.95;;;42.60;22.90;;;;;;4358518;32;20085;-37
2021/08/09 10:29:14;;;;;;;5.45;1.48;;;42.70;23.10;;;;;;4358621;32;20135;-39
2021/08/09 10:31:49;;;;;;;4.30;1.52;;;42.70;22.90;;;;;;4357860;32;20085;-39
2021/08/09 10:35:14;;;;;;;7.90;1.10;;;42.80;23.00;;;;;;4358585;32;20605;-38
2021/08/09 10:38:30;;;;;;;3.35;1.00;;;42.80;22.90;;;;;;4303464;33;20086;-38
2021/08/09 10:41:08;;;;;;;3.17;1.12;;;42.60;22.80;;;;;;4254363;33;20108;-37
2021/08/09 10:43:41;;;;;;;3.05;0.93;;;42.60;23.00;;;;;;4267872;33;20699;-38
2021/08/09 10:46:38;;;;;;;3.47;1.20;;;42.50;23.00;;;;;;4256765;33;20087;-38
2021/08/09 10:49:28;;;;;;;2.03;1.10;;;42.50;22.80;;;;;;4267791;33;20158;-38
2021/08/09 10:51:55;;;;;;;3.30;1.10;;;42.60;23.00;;;;;;4260405;33;20516;-38
2021/08/09 10:54:35;;;;;;;5.62;1.75;;;42.70;23.10;;;;;;4268015;33;20167;-38
2021/08/09 10:57:03;;;;;;;2.65;1.77;;;42.90;23.20;;;;;;4267946;33;20067;-39
2021/08/09 10:59:48;;;;;;;2.00;1.65;;;42.90;22.90;;;;;;4268005;33;20507;-37
2021/08/09 11:02:23;;;;;;;3.58;1.52;;;42.90;23.20;;;;;;4267940;33;20616;-37
2021/08/09 11:05:16;;;;;;;2.95;1.15;;;42.70;23.00;;;;;;4267806;33;20577;-39
2021/08/09 11:07:44;;;;;;;4.78;1.30;;;42.50;23.10;;;;;;4270418;33;20147;-38
2021/08/09 11:10:11;;;;;;;3.05;1.60;;;42.40;23.10;;;;;;4284808;33;20078;-37
2021/08/09 11:12:59;;;;;;;7.55;1.20;;;42.30;23.30;;;;;;4284117;33;20064;-38
2021/08/09 11:15:27;;;;;;;4.60;1.00;;;42.20;23.30;;;;;;4349542;32;20542;-39
2021/08/09 11:17:55;;;;;;;3.47;1.20;;;42.20;23.30;;;;;;4358720;32;20070;-38
2021/08/09 11:20:34;;;;;;;3.60;1.27;;;42.10;23.30;;;;;;4372578;32;20454;-39
2021/08/09 11:23:04;;;;;;;11.52;1.62;;;42.20;23.30;;;;;;4372703;32;20070;-38
2021/08/09 11:25:39;;;;;;;6.12;1.77;;;42.30;23.10;;;;;;4372847;32;20082;-39
2021/08/09 11:28:07;;;;;;;4.05;1.30;;;42.40;23.00;;;;;;4372432;32;20084;-38
2021/08/09 11:30:39;;;;;;;3.72;1.25;;;42.60;22.80;;;;;;4372871;32;20510;-38
2021/08/09 11:33:06;;;;;;;2.00;1.12;;;42.80;22.80;;;;;;4372829;32;20171;-38
2021/08/09 11:35:45;;;;;;;5.87;1.67;;;43.20;22.80;;;;;;4372868;32;20183;-38
2021/08/09 11:38:12;;;;;;;6.12;1.50;;;43.50;22.70;;;;;;4346731;32;20063;-39
2021/08/09 11:40:47;;;;;;;3.92;1.37;;;43.50;22.40;;;;;;4372650;32;20142;-38
2021/08/09 11:43:35;;;;;;;2.87;1.10;;;43.50;22.40;;;;;;4357581;32;20126;-39
2021/08/09 11:46:06;;;;;;;4.22;1.15;;;43.40;22.70;;;;;;4357525;32;20624;-38
2021/08/09 11:48:35;;;;;;;3.47;1.30;;;43.30;22.70;;;;;;4357824;32;20062;-37
2021/08/09 11:51:10;;;;;;;2.90;1.35;;;43.20;23.00;;;;;;4357553;32;20074;-38
2021/08/09 11:53:40;;;;;;;3.70;1.20;;;43.10;22.80;;;;;;4357323;32;20179;-38
2021/08/09 11:56:15;;;;;;;7.45;1.45;;;43.00;23.20;;;;;;4357625;32;20082;-38
2021/08/09 11:58:42;;;;;;;2.78;1.40;;;42.90;23.10;;;;;;4358479;32;20082;-39
2021/08/09 12:01:09;;;;;;;5.18;1.62;;;42.80;23.20;;;;;;4360377;32;20142;-37
2021/08/09 12:03:36;;;;;;;4.62;1.50;;;42.60;23.30;;;;;;4360144;32;20074;-38
2021/08/09 12:06:55;;;;;;;5.95;1.33;;;42.60;23.40;;;;;;4346250;32;20072;-37
2021/08/09 12:09:34;;;;;;;2.00;1.17;;;42.60;23.50;;;;;;4313132;33;20184;-38
2021/08/09 12:12:04;;;;;;;3.42;1.77;;;42.60;23.30;;;;;;4347816;32;20070;-39
2021/08/09 12:14:32;;;;;;;3.12;1.60;;;42.60;23.30;;;;;;4360193;32;20070;-38
2021/08/09 12:17:22;;;;;;;4.90;1.40;;;42.60;23.20;;;;;;4334170;32;20494;-41
2021/08/09 12:19:48;;;;;;;4.50;1.52;;;42.70;23.40;;;;;;4360449;32;20062;-38
2021/08/09 12:22:29;;;;;;;5.53;1.67;;;42.80;23.20;;;;;;4360068;32;20125;-37
2021/08/09 12:25:08;;;;;;;4.90;1.48;;;42.90;23.20;;;;;;4359967;32;20047;-39
2021/08/09 12:27:34;;;;;;;5.32;1.50;;;43.00;23.20;;;;;;4359871;32;20066;-37
2021/08/09 12:30:13;;;;;;;1.70;1.10;;;43.10;23.10;;;;;;4333854;32;20100;-38
2021/08/09 12:32:55;;;;;;;6.72;1.48;;;43.10;23.30;;;;;;4346961;32;20215;-39
2021/08/09 12:35:34;;;;;;;4.35;1.15;;;43.00;23.40;;;;;;4359873;32;20070;-38
2021/08/09 12:38:00;;;;;;;2.15;1.10;;;42.90;23.70;;;;;;4359951;32;20614;-37
2021/08/09 12:40:43;;;;;;;6.85;1.70;;;42.60;23.70;;;;;;4359312;32;20073;-39
2021/08/09 12:43:14;;;;;;;6.60;1.55;;;42.50;23.60;;;;;;4347035;32;20094;-39
2021/08/09 12:45:41;;;;;;;3.03;1.73;;;42.40;23.50;;;;;;4359721;32;20062;-39
2021/08/09 12:48:09;;;;;;;2.70;1.52;;;42.30;23.30;;;;;;4359700;32;20145;-39
2021/08/09 12:50:37;;;;;;;3.55;1.50;;;42.30;23.50;;;;;;4359391;32;20551;-39
2021/08/09 12:53:03;;;;;;;6.68;1.80;;;42.30;23.90;;;;;;4359165;32;20073;-38
2021/08/09 12:55:30;;;;;;;4.37;1.70;;;42.30;23.90;;;;;;4359280;32;20526;-40
2021/08/09 12:58:00;;;;;;;8.07;1.60;;;42.30;23.90;;;;;;4345260;32;20059;-39
2021/08/09 13:00:27;;;;;;;5.15;1.80;;;42.30;23.90;;;;;;4358986;32;20069;-38